Bandana, Kentucky
Current Conditions -  °F | °C
As of 9:35 AM on Friday 24 Oct 2014 (Local Time) from KM30 Reporting Station
Broken Clouds Broken Clouds  
Wind Chill: 11°   Ceiling: 3000
Heat Index: 11°   Visibility: 7mi
Dew Point: 12°   Wind: 0mph
Humidity: 100%   Direction: NA
Pressure: 30.14"   Gusts: NA
Location:  37.15°N, 88.95°W
Report Text: KM30 241435Z AUTO 00000KT 7SM BKN030 12/12 A3014 RMK AO2 T01150115
Loading
Personal Weather Stations






























Interactive Weather Map
Tropical Storm Tracking
New forecast layout! Learn more

10-Day Weather Forecast

Advertisements
Track Severe Weather on mobile